sensor_id;sensor_type;location;lat;lon;timestamp;P1;durP1;ratioP1;P2;durP2;ratioP2
16579;SDS011;8402;51.466;6.806;2023-12-07T00:02:07;19.00;;;9.33;;
16579;SDS011;8402;51.466;6.806;2023-12-07T00:04:39;19.10;;;9.03;;
16579;SDS011;8402;51.466;6.806;2023-12-07T00:07:11;19.03;;;9.40;;
16579;SDS011;8402;51.466;6.806;2023-12-07T00:09:41;19.43;;;8.97;;
16579;SDS011;8402;51.466;6.806;2023-12-07T00:12:11;25.37;;;10.13;;
16579;SDS011;8402;51.466;6.806;2023-12-07T00:14:41;16.70;;;9.13;;
16579;SDS011;8402;51.466;6.806;2023-12-07T00:17:11;21.60;;;9.53;;
16579;SDS011;8402;51.466;6.806;2023-12-07T00:19:42;18.13;;;9.03;;
16579;SDS011;8402;51.466;6.806;2023-12-07T00:22:15;14.40;;;8.43;;
16579;SDS011;8402;51.466;6.806;2023-12-07T00:24:45;20.00;;;9.03;;
16579;SDS011;8402;51.466;6.806;2023-12-07T00:27:15;18.17;;;9.20;;
16579;SDS011;8402;51.466;6.806;2023-12-07T00:29:45;20.27;;;9.60;;
16579;SDS011;8402;51.466;6.806;2023-12-07T00:32:15;21.17;;;9.57;;
16579;SDS011;8402;51.466;6.806;2023-12-07T00:34:45;18.47;;;8.83;;
16579;SDS011;8402;51.466;6.806;2023-12-07T00:37:18;17.97;;;9.77;;
16579;SDS011;8402;51.466;6.806;2023-12-07T00:39:48;19.10;;;9.63;;
16579;SDS011;8402;51.466;6.806;2023-12-07T00:42:18;19.20;;;9.17;;
16579;SDS011;8402;51.466;6.806;2023-12-07T00:44:49;23.80;;;10.07;;
16579;SDS011;8402;51.466;6.806;2023-12-07T00:47:19;17.87;;;9.10;;
16579;SDS011;8402;51.466;6.806;2023-12-07T00:49:49;18.77;;;8.93;;
16579;SDS011;8402;51.466;6.806;2023-12-07T00:52:21;19.33;;;9.27;;
16579;SDS011;8402;51.466;6.806;2023-12-07T00:54:52;19.03;;;9.17;;
16579;SDS011;8402;51.466;6.806;2023-12-07T00:57:37;20.27;;;9.33;;
16579;SDS011;8402;51.466;6.806;2023-12-07T01:00:08;23.50;;;9.83;;
16579;SDS011;8402;51.466;6.806;2023-12-07T01:02:39;20.73;;;9.20;;
16579;SDS011;8402;51.466;6.806;2023-12-07T01:05:09;21.17;;;9.07;;
16579;SDS011;8402;51.466;6.806;2023-12-07T01:07:42;18.63;;;9.40;;
16579;SDS011;8402;51.466;6.806;2023-12-07T01:10:12;20.90;;;10.40;;
16579;SDS011;8402;51.466;6.806;2023-12-07T01:12:42;28.60;;;9.10;;
16579;SDS011;8402;51.466;6.806;2023-12-07T01:15:12;37.03;;;10.43;;
16579;SDS011;8402;51.466;6.806;2023-12-07T01:17:42;29.23;;;11.40;;
16579;SDS011;8402;51.466;6.806;2023-12-07T01:20:12;44.20;;;11.90;;
16579;SDS011;8402;51.466;6.806;2023-12-07T01:22:45;27.23;;;11.33;;
16579;SDS011;8402;51.466;6.806;2023-12-07T01:25:12;26.50;;;11.00;;
16579;SDS011;8402;51.466;6.806;2023-12-07T01:27:49;47.20;;;11.43;;
16579;SDS011;8402;51.466;6.806;2023-12-07T01:30:20;25.47;;;11.43;;
16579;SDS011;8402;51.466;6.806;2023-12-07T01:32:50;24.10;;;11.13;;
16579;SDS011;8402;51.466;6.806;2023-12-07T01:35:20;22.50;;;11.47;;
16579;SDS011;8402;51.466;6.806;2023-12-07T01:37:52;32.77;;;11.93;;
16579;SDS011;8402;51.466;6.806;2023-12-07T01:40:22;25.13;;;10.63;;
16579;SDS011;8402;51.466;6.806;2023-12-07T01:42:52;26.97;;;11.93;;
16579;SDS011;8402;51.466;6.806;2023-12-07T01:45:23;33.03;;;11.57;;
16579;SDS011;8402;51.466;6.806;2023-12-07T01:47:52;21.30;;;10.77;;
16579;SDS011;8402;51.466;6.806;2023-12-07T01:50:25;31.07;;;10.80;;
16579;SDS011;8402;51.466;6.806;2023-12-07T01:53:00;23.73;;;11.63;;
16579;SDS011;8402;51.466;6.806;2023-12-07T01:55:34;26.43;;;10.60;;
16579;SDS011;8402;51.466;6.806;2023-12-07T01:58:05;25.00;;;11.60;;
16579;SDS011;8402;51.466;6.806;2023-12-07T02:00:36;21.07;;;11.17;;
16579;SDS011;8402;51.466;6.806;2023-12-07T02:03:06;27.00;;;11.57;;
16579;SDS011;8402;51.466;6.806;2023-12-07T02:05:36;24.60;;;12.00;;
16579;SDS011;8402;51.466;6.806;2023-12-07T02:08:09;38.30;;;12.27;;
16579;SDS011;8402;51.466;6.806;2023-12-07T02:10:39;26.30;;;11.63;;
16579;SDS011;8402;51.466;6.806;2023-12-07T02:13:09;54.97;;;12.43;;
16579;SDS011;8402;51.466;6.806;2023-12-07T02:15:40;28.77;;;11.60;;
16579;SDS011;8402;51.466;6.806;2023-12-07T02:18:10;49.93;;;12.40;;
16579;SDS011;8402;51.466;6.806;2023-12-07T02:20:47;35.37;;;11.93;;
16579;SDS011;8402;51.466;6.806;2023-12-07T02:23:27;25.63;;;12.27;;
16579;SDS011;8402;51.466;6.806;2023-12-07T02:26:12;53.50;;;13.43;;
16579;SDS011;8402;51.466;6.806;2023-12-07T02:28:50;40.40;;;12.80;;
16579;SDS011;8402;51.466;6.806;2023-12-07T02:31:20;34.33;;;12.43;;
16579;SDS011;8402;51.466;6.806;2023-12-07T02:33:50;65.23;;;12.20;;
16579;SDS011;8402;51.466;6.806;2023-12-07T02:36:20;22.03;;;11.70;;
16579;SDS011;8402;51.466;6.806;2023-12-07T02:38:54;27.83;;;11.70;;
16579;SDS011;8402;51.466;6.806;2023-12-07T02:41:28;40.07;;;12.83;;
16579;SDS011;8402;51.466;6.806;2023-12-07T02:44:03;26.80;;;11.87;;
16579;SDS011;8402;51.466;6.806;2023-12-07T02:46:34;29.00;;;12.37;;
16579;SDS011;8402;51.466;6.806;2023-12-07T02:49:04;24.47;;;11.90;;
16579;SDS011;8402;51.466;6.806;2023-12-07T02:51:34;33.80;;;12.87;;
16579;SDS011;8402;51.466;6.806;2023-12-07T02:54:04;24.73;;;11.90;;
16579;SDS011;8402;51.466;6.806;2023-12-07T02:56:34;26.00;;;12.20;;
16579;SDS011;8402;51.466;6.806;2023-12-07T02:59:06;23.10;;;11.43;;
16579;SDS011;8402;51.466;6.806;2023-12-07T03:01:36;28.33;;;13.47;;
16579;SDS011;8402;51.466;6.806;2023-12-07T03:04:07;29.10;;;13.10;;
16579;SDS011;8402;51.466;6.806;2023-12-07T03:06:37;24.23;;;11.13;;
16579;SDS011;8402;51.466;6.806;2023-12-07T03:09:07;26.97;;;13.03;;
16579;SDS011;8402;51.466;6.806;2023-12-07T03:11:37;29.27;;;12.73;;
16579;SDS011;8402;51.466;6.806;2023-12-07T03:14:09;22.07;;;11.47;;
16579;SDS011;8402;51.466;6.806;2023-12-07T03:16:39;25.87;;;12.57;;
16579;SDS011;8402;51.466;6.806;2023-12-07T03:19:09;30.67;;;13.73;;
16579;SDS011;8402;51.466;6.806;2023-12-07T03:21:39;28.77;;;13.23;;
16579;SDS011;8402;51.466;6.806;2023-12-07T03:24:10;27.70;;;12.73;;
16579;SDS011;8402;51.466;6.806;2023-12-07T03:26:40;26.93;;;12.07;;
16579;SDS011;8402;51.466;6.806;2023-12-07T03:29:12;29.20;;;13.43;;
16579;SDS011;8402;51.466;6.806;2023-12-07T03:31:42;28.93;;;13.13;;
16579;SDS011;8402;51.466;6.806;2023-12-07T03:34:12;67.93;;;14.00;;
16579;SDS011;8402;51.466;6.806;2023-12-07T03:36:42;28.83;;;12.90;;
16579;SDS011;8402;51.466;6.806;2023-12-07T03:39:14;32.43;;;13.23;;
16579;SDS011;8402;51.466;6.806;2023-12-07T03:41:45;29.10;;;12.97;;
16579;SDS011;8402;51.466;6.806;2023-12-07T03:44:18;28.83;;;12.60;;
16579;SDS011;8402;51.466;6.806;2023-12-07T03:46:48;30.30;;;13.30;;
16579;SDS011;8402;51.466;6.806;2023-12-07T03:49:17;29.13;;;13.13;;
16579;SDS011;8402;51.466;6.806;2023-12-07T03:51:48;58.10;;;14.07;;
16579;SDS011;8402;51.466;6.806;2023-12-07T03:54:18;33.50;;;13.40;;
16579;SDS011;8402;51.466;6.806;2023-12-07T03:56:48;31.13;;;13.80;;
16579;SDS011;8402;51.466;6.806;2023-12-07T03:59:21;29.37;;;13.10;;
16579;SDS011;8402;51.466;6.806;2023-12-07T04:01:51;29.03;;;13.57;;
16579;SDS011;8402;51.466;6.806;2023-12-07T04:04:21;33.33;;;14.03;;
16579;SDS011;8402;51.466;6.806;2023-12-07T04:06:51;31.10;;;13.83;;
16579;SDS011;8402;51.466;6.806;2023-12-07T04:09:23;28.23;;;13.60;;
16579;SDS011;8402;51.466;6.806;2023-12-07T04:11:53;32.53;;;14.30;;
16579;SDS011;8402;51.466;6.806;2023-12-07T04:14:25;28.90;;;14.03;;
16579;SDS011;8402;51.466;6.806;2023-12-07T04:16:55;30.57;;;13.40;;
16579;SDS011;8402;51.466;6.806;2023-12-07T04:19:25;28.37;;;13.70;;
16579;SDS011;8402;51.466;6.806;2023-12-07T04:21:55;27.77;;;13.70;;
16579;SDS011;8402;51.466;6.806;2023-12-07T04:24:25;27.27;;;12.03;;
16579;SDS011;8402;51.466;6.806;2023-12-07T04:26:55;32.60;;;13.50;;
16579;SDS011;8402;51.466;6.806;2023-12-07T04:29:28;27.97;;;13.27;;
16579;SDS011;8402;51.466;6.806;2023-12-07T04:31:58;29.57;;;13.83;;
16579;SDS011;8402;51.466;6.806;2023-12-07T04:34:29;36.80;;;15.53;;
16579;SDS011;8402;51.466;6.806;2023-12-07T04:36:59;36.50;;;14.57;;
16579;SDS011;8402;51.466;6.806;2023-12-07T04:39:29;30.30;;;14.00;;
16579;SDS011;8402;51.466;6.806;2023-12-07T04:41:59;38.60;;;13.77;;
16579;SDS011;8402;51.466;6.806;2023-12-07T04:44:32;30.27;;;13.77;;
16579;SDS011;8402;51.466;6.806;2023-12-07T04:47:02;27.87;;;13.40;;
16579;SDS011;8402;51.466;6.806;2023-12-07T04:49:33;32.60;;;14.03;;
16579;SDS011;8402;51.466;6.806;2023-12-07T04:52:03;31.13;;;14.90;;
16579;SDS011;8402;51.466;6.806;2023-12-07T04:54:33;31.90;;;14.27;;
16579;SDS011;8402;51.466;6.806;2023-12-07T04:57:03;38.70;;;15.80;;
16579;SDS011;8402;51.466;6.806;2023-12-07T04:59:37;38.23;;;14.90;;
16579;SDS011;8402;51.466;6.806;2023-12-07T05:02:07;37.50;;;15.77;;
16579;SDS011;8402;51.466;6.806;2023-12-07T05:04:37;35.00;;;14.73;;
16579;SDS011;8402;51.466;6.806;2023-12-07T05:07:07;35.13;;;15.10;;
16579;SDS011;8402;51.466;6.806;2023-12-07T05:09:37;37.60;;;15.17;;
16579;SDS011;8402;51.466;6.806;2023-12-07T05:12:08;33.07;;;14.10;;
16579;SDS011;8402;51.466;6.806;2023-12-07T05:14:41;37.63;;;15.40;;
16579;SDS011;8402;51.466;6.806;2023-12-07T05:17:11;53.50;;;14.93;;
16579;SDS011;8402;51.466;6.806;2023-12-07T05:19:41;30.83;;;13.50;;
16579;SDS011;8402;51.466;6.806;2023-12-07T05:22:11;31.83;;;13.20;;
16579;SDS011;8402;51.466;6.806;2023-12-07T05:24:41;29.20;;;12.53;;
16579;SDS011;8402;51.466;6.806;2023-12-07T05:27:11;28.30;;;13.10;;
16579;SDS011;8402;51.466;6.806;2023-12-07T05:29:43;30.87;;;13.97;;
16579;SDS011;8402;51.466;6.806;2023-12-07T05:32:13;32.70;;;14.27;;
16579;SDS011;8402;51.466;6.806;2023-12-07T05:34:44;27.70;;;13.23;;
16579;SDS011;8402;51.466;6.806;2023-12-07T05:37:14;29.93;;;12.73;;
16579;SDS011;8402;51.466;6.806;2023-12-07T05:39:44;39.20;;;14.10;;
16579;SDS011;8402;51.466;6.806;2023-12-07T05:42:14;29.90;;;13.50;;
16579;SDS011;8402;51.466;6.806;2023-12-07T05:44:48;29.53;;;12.90;;
16579;SDS011;8402;51.466;6.806;2023-12-07T05:47:18;30.53;;;14.40;;
16579;SDS011;8402;51.466;6.806;2023-12-07T05:49:48;30.67;;;13.90;;
16579;SDS011;8402;51.466;6.806;2023-12-07T05:52:18;29.10;;;12.73;;
16579;SDS011;8402;51.466;6.806;2023-12-07T05:54:48;29.07;;;12.87;;
16579;SDS011;8402;51.466;6.806;2023-12-07T05:57:18;27.83;;;13.07;;
16579;SDS011;8402;51.466;6.806;2023-12-07T05:59:50;30.83;;;13.67;;
16579;SDS011;8402;51.466;6.806;2023-12-07T06:02:20;28.67;;;13.20;;
16579;SDS011;8402;51.466;6.806;2023-12-07T06:04:51;32.77;;;14.13;;
16579;SDS011;8402;51.466;6.806;2023-12-07T06:07:21;33.27;;;13.33;;
16579;SDS011;8402;51.466;6.806;2023-12-07T06:09:51;34.03;;;13.50;;
16579;SDS011;8402;51.466;6.806;2023-12-07T06:12:22;39.90;;;15.53;;
16579;SDS011;8402;51.466;6.806;2023-12-07T06:14:58;32.73;;;14.03;;
16579;SDS011;8402;51.466;6.806;2023-12-07T06:17:29;37.30;;;15.97;;
16579;SDS011;8402;51.466;6.806;2023-12-07T06:20:00;35.73;;;13.77;;
16579;SDS011;8402;51.466;6.806;2023-12-07T06:22:30;30.30;;;14.07;;
16579;SDS011;8402;51.466;6.806;2023-12-07T06:25:00;39.77;;;16.23;;
16579;SDS011;8402;51.466;6.806;2023-12-07T06:27:30;34.90;;;15.27;;
16579;SDS011;8402;51.466;6.806;2023-12-07T06:30:03;38.53;;;16.20;;
16579;SDS011;8402;51.466;6.806;2023-12-07T06:32:35;39.50;;;15.47;;
16579;SDS011;8402;51.466;6.806;2023-12-07T06:35:05;41.07;;;15.73;;
16579;SDS011;8402;51.466;6.806;2023-12-07T06:37:36;41.23;;;16.53;;
16579;SDS011;8402;51.466;6.806;2023-12-07T06:40:08;38.43;;;15.70;;
16579;SDS011;8402;51.466;6.806;2023-12-07T06:42:39;39.87;;;15.33;;
16579;SDS011;8402;51.466;6.806;2023-12-07T06:45:12;40.43;;;15.93;;
16579;SDS011;8402;51.466;6.806;2023-12-07T06:47:43;41.97;;;16.53;;
16579;SDS011;8402;51.466;6.806;2023-12-07T06:50:13;41.33;;;15.07;;
16579;SDS011;8402;51.466;6.806;2023-12-07T06:52:43;40.77;;;16.47;;
16579;SDS011;8402;51.466;6.806;2023-12-07T06:55:13;37.30;;;15.67;;
16579;SDS011;8402;51.466;6.806;2023-12-07T06:57:46;41.00;;;15.43;;
16579;SDS011;8402;51.466;6.806;2023-12-07T07:00:19;37.97;;;16.47;;
16579;SDS011;8402;51.466;6.806;2023-12-07T07:02:51;40.40;;;16.13;;
16579;SDS011;8402;51.466;6.806;2023-12-07T07:05:21;33.97;;;15.30;;
16579;SDS011;8402;51.466;6.806;2023-12-07T07:07:51;32.77;;;15.03;;
16579;SDS011;8402;51.466;6.806;2023-12-07T07:10:22;33.73;;;15.40;;
16579;SDS011;8402;51.466;6.806;2023-12-07T07:12:52;36.63;;;15.83;;
16579;SDS011;8402;51.466;6.806;2023-12-07T07:15:25;31.67;;;14.37;;
16579;SDS011;8402;51.466;6.806;2023-12-07T07:17:55;31.27;;;15.03;;
16579;SDS011;8402;51.466;6.806;2023-12-07T07:20:25;32.97;;;13.53;;
16579;SDS011;8402;51.466;6.806;2023-12-07T07:22:55;33.67;;;15.03;;
16579;SDS011;8402;51.466;6.806;2023-12-07T07:25:25;36.13;;;14.57;;
16579;SDS011;8402;51.466;6.806;2023-12-07T07:27:55;34.57;;;13.90;;
16579;SDS011;8402;51.466;6.806;2023-12-07T07:30:28;35.23;;;14.77;;
16579;SDS011;8402;51.466;6.806;2023-12-07T07:32:58;35.20;;;15.20;;
16579;SDS011;8402;51.466;6.806;2023-12-07T07:35:29;32.67;;;13.83;;
16579;SDS011;8402;51.466;6.806;2023-12-07T07:37:59;34.73;;;14.80;;
16579;SDS011;8402;51.466;6.806;2023-12-07T07:40:29;35.27;;;15.27;;
16579;SDS011;8402;51.466;6.806;2023-12-07T07:42:59;33.37;;;14.33;;
16579;SDS011;8402;51.466;6.806;2023-12-07T07:45:32;35.27;;;14.60;;
16579;SDS011;8402;51.466;6.806;2023-12-07T07:48:02;67.40;;;16.47;;
16579;SDS011;8402;51.466;6.806;2023-12-07T07:50:32;28.73;;;13.73;;
16579;SDS011;8402;51.466;6.806;2023-12-07T07:53:03;36.27;;;16.00;;
16579;SDS011;8402;51.466;6.806;2023-12-07T07:55:33;32.87;;;14.67;;
16579;SDS011;8402;51.466;6.806;2023-12-07T07:58:03;36.77;;;14.43;;
16579;SDS011;8402;51.466;6.806;2023-12-07T08:00:36;33.63;;;13.77;;
16579;SDS011;8402;51.466;6.806;2023-12-07T08:03:07;27.47;;;13.00;;
16579;SDS011;8402;51.466;6.806;2023-12-07T08:05:37;29.73;;;13.47;;
16579;SDS011;8402;51.466;6.806;2023-12-07T08:08:07;37.03;;;15.60;;
16579;SDS011;8402;51.466;6.806;2023-12-07T08:10:38;37.40;;;16.20;;
16579;SDS011;8402;51.466;6.806;2023-12-07T08:13:21;36.10;;;15.00;;
16579;SDS011;8402;51.466;6.806;2023-12-07T08:15:54;37.13;;;15.63;;
16579;SDS011;8402;51.466;6.806;2023-12-07T08:18:24;33.30;;;14.90;;
16579;SDS011;8402;51.466;6.806;2023-12-07T08:20:55;37.07;;;15.47;;
16579;SDS011;8402;51.466;6.806;2023-12-07T08:23:26;41.83;;;15.93;;
16579;SDS011;8402;51.466;6.806;2023-12-07T08:25:56;34.67;;;15.50;;
16579;SDS011;8402;51.466;6.806;2023-12-07T08:28:26;35.33;;;14.83;;
16579;SDS011;8402;51.466;6.806;2023-12-07T08:30:59;35.27;;;14.53;;
16579;SDS011;8402;51.466;6.806;2023-12-07T08:33:29;34.60;;;14.30;;
16579;SDS011;8402;51.466;6.806;2023-12-07T08:36:01;33.50;;;14.67;;
16579;SDS011;8402;51.466;6.806;2023-12-07T08:38:31;32.47;;;14.27;;
16579;SDS011;8402;51.466;6.806;2023-12-07T08:41:01;30.17;;;13.57;;
16579;SDS011;8402;51.466;6.806;2023-12-07T08:43:31;29.63;;;13.13;;
16579;SDS011;8402;51.466;6.806;2023-12-07T08:46:03;31.43;;;13.93;;
16579;SDS011;8402;51.466;6.806;2023-12-07T08:48:35;31.07;;;13.47;;
16579;SDS011;8402;51.466;6.806;2023-12-07T08:51:08;34.17;;;12.80;;
16579;SDS011;8402;51.466;6.806;2023-12-07T08:53:38;32.00;;;13.03;;
16579;SDS011;8402;51.466;6.806;2023-12-07T08:56:09;31.27;;;12.87;;
16579;SDS011;8402;51.466;6.806;2023-12-07T08:58:39;29.13;;;12.93;;
16579;SDS011;8402;51.466;6.806;2023-12-07T09:01:12;28.77;;;12.80;;
16579;SDS011;8402;51.466;6.806;2023-12-07T09:03:55;20.33;;;9.70;;
16579;SDS011;8402;51.466;6.806;2023-12-07T09:06:25;29.03;;;11.63;;
16579;SDS011;8402;51.466;6.806;2023-12-07T09:08:56;25.23;;;11.40;;
16579;SDS011;8402;51.466;6.806;2023-12-07T09:11:27;31.47;;;11.97;;
16579;SDS011;8402;51.466;6.806;2023-12-07T09:13:57;26.67;;;12.70;;
16579;SDS011;8402;51.466;6.806;2023-12-07T09:16:30;22.47;;;11.17;;
16579;SDS011;8402;51.466;6.806;2023-12-07T09:19:00;27.70;;;13.00;;
16579;SDS011;8402;51.466;6.806;2023-12-07T09:21:30;23.63;;;11.40;;
16579;SDS011;8402;51.466;6.806;2023-12-07T09:24:00;29.10;;;12.27;;
16579;SDS011;8402;51.466;6.806;2023-12-07T09:26:29;26.00;;;12.10;;
16579;SDS011;8402;51.466;6.806;2023-12-07T09:28:59;25.57;;;12.27;;
16579;SDS011;8402;51.466;6.806;2023-12-07T09:31:32;27.00;;;12.20;;
16579;SDS011;8402;51.466;6.806;2023-12-07T09:34:03;24.43;;;11.93;;
16579;SDS011;8402;51.466;6.806;2023-12-07T09:36:38;22.70;;;8.60;;
16579;SDS011;8402;51.466;6.806;2023-12-07T09:39:08;26.57;;;11.23;;
16579;SDS011;8402;51.466;6.806;2023-12-07T09:41:39;24.57;;;11.33;;
16579;SDS011;8402;51.466;6.806;2023-12-07T09:44:14;19.20;;;8.67;;
16579;SDS011;8402;51.466;6.806;2023-12-07T09:46:46;21.00;;;10.03;;
16579;SDS011;8402;51.466;6.806;2023-12-07T09:49:17;27.53;;;11.67;;
16579;SDS011;8402;51.466;6.806;2023-12-07T09:51:47;22.97;;;10.33;;
16579;SDS011;8402;51.466;6.806;2023-12-07T09:54:18;23.53;;;11.00;;
16579;SDS011;8402;51.466;6.806;2023-12-07T09:56:50;17.97;;;8.63;;
16579;SDS011;8402;51.466;6.806;2023-12-07T09:59:21;24.80;;;10.10;;
16579;SDS011;8402;51.466;6.806;2023-12-07T10:01:54;28.37;;;10.00;;
16579;SDS011;8402;51.466;6.806;2023-12-07T10:04:23;25.07;;;10.93;;
16579;SDS011;8402;51.466;6.806;2023-12-07T10:06:56;24.40;;;10.60;;
16579;SDS011;8402;51.466;6.806;2023-12-07T10:09:26;24.60;;;10.10;;
16579;SDS011;8402;51.466;6.806;2023-12-07T10:12:03;32.03;;;11.70;;
16579;SDS011;8402;51.466;6.806;2023-12-07T10:14:33;24.03;;;9.60;;
16579;SDS011;8402;51.466;6.806;2023-12-07T10:17:06;24.43;;;9.57;;
16579;SDS011;8402;51.466;6.806;2023-12-07T10:19:36;23.57;;;9.97;;
16579;SDS011;8402;51.466;6.806;2023-12-07T10:22:12;20.90;;;9.73;;
16579;SDS011;8402;51.466;6.806;2023-12-07T10:24:43;19.67;;;8.60;;
16579;SDS011;8402;51.466;6.806;2023-12-07T10:27:13;22.23;;;10.53;;
16579;SDS011;8402;51.466;6.806;2023-12-07T10:29:44;20.70;;;9.30;;
16579;SDS011;8402;51.466;6.806;2023-12-07T10:32:18;22.13;;;10.00;;
16579;SDS011;8402;51.466;6.806;2023-12-07T10:34:48;24.53;;;9.23;;
16579;SDS011;8402;51.466;6.806;2023-12-07T10:37:18;22.17;;;10.07;;
16579;SDS011;8402;51.466;6.806;2023-12-07T10:39:48;21.03;;;9.40;;
16579;SDS011;8402;51.466;6.806;2023-12-07T10:42:18;21.43;;;8.67;;
16579;SDS011;8402;51.466;6.806;2023-12-07T10:44:54;18.37;;;8.17;;
16579;SDS011;8402;51.466;6.806;2023-12-07T10:47:31;18.33;;;9.27;;
16579;SDS011;8402;51.466;6.806;2023-12-07T10:50:05;19.20;;;9.03;;
16579;SDS011;8402;51.466;6.806;2023-12-07T10:52:43;23.53;;;9.23;;
16579;SDS011;8402;51.466;6.806;2023-12-07T10:55:16;20.43;;;9.60;;
16579;SDS011;8402;51.466;6.806;2023-12-07T10:57:49;22.93;;;10.47;;
16579;SDS011;8402;51.466;6.806;2023-12-07T11:00:22;18.77;;;8.63;;
16579;SDS011;8402;51.466;6.806;2023-12-07T11:03:12;21.37;;;9.93;;
16579;SDS011;8402;51.466;6.806;2023-12-07T11:05:46;20.27;;;8.87;;
16579;SDS011;8402;51.466;6.806;2023-12-07T11:08:18;23.17;;;10.27;;
16579;SDS011;8402;51.466;6.806;2023-12-07T11:10:58;23.70;;;10.43;;
16579;SDS011;8402;51.466;6.806;2023-12-07T11:13:35;21.23;;;9.13;;
16579;SDS011;8402;51.466;6.806;2023-12-07T11:16:06;19.23;;;9.50;;
16579;SDS011;8402;51.466;6.806;2023-12-07T11:18:41;13.77;;;6.97;;
16579;SDS011;8402;51.466;6.806;2023-12-07T11:21:12;19.83;;;9.50;;
16579;SDS011;8402;51.466;6.806;2023-12-07T11:23:42;22.30;;;9.70;;
16579;SDS011;8402;51.466;6.806;2023-12-07T11:26:12;18.97;;;9.10;;
16579;SDS011;8402;51.466;6.806;2023-12-07T11:28:42;18.37;;;8.90;;
16579;SDS011;8402;51.466;6.806;2023-12-07T11:31:12;16.67;;;7.73;;
16579;SDS011;8402;51.466;6.806;2023-12-07T11:33:45;20.17;;;9.07;;
16579;SDS011;8402;51.466;6.806;2023-12-07T11:36:16;18.43;;;8.80;;
16579;SDS011;8402;51.466;6.806;2023-12-07T11:41:55;16.33;;;7.83;;
16579;SDS011;8402;51.466;6.806;2023-12-07T11:44:36;18.23;;;9.30;;
16579;SDS011;8402;51.466;6.806;2023-12-07T11:47:08;16.17;;;8.33;;
16579;SDS011;8402;51.466;6.806;2023-12-07T11:49:41;17.23;;;8.57;;
16579;SDS011;8402;51.466;6.806;2023-12-07T11:52:14;16.87;;;8.70;;
16579;SDS011;8402;51.466;6.806;2023-12-07T11:54:45;17.27;;;8.57;;
16579;SDS011;8402;51.466;6.806;2023-12-07T11:57:16;19.00;;;8.57;;
16579;SDS011;8402;51.466;6.806;2023-12-07T11:59:47;18.17;;;7.70;;
16579;SDS011;8402;51.466;6.806;2023-12-07T12:02:17;17.53;;;7.67;;
16579;SDS011;8402;51.466;6.806;2023-12-07T12:04:50;18.30;;;8.57;;
16579;SDS011;8402;51.466;6.806;2023-12-07T12:07:21;21.33;;;8.27;;
16579;SDS011;8402;51.466;6.806;2023-12-07T12:09:52;14.93;;;7.87;;
16579;SDS011;8402;51.466;6.806;2023-12-07T12:12:22;14.47;;;7.37;;
16579;SDS011;8402;51.466;6.806;2023-12-07T12:14:53;18.63;;;8.53;;
16579;SDS011;8402;51.466;6.806;2023-12-07T12:17:23;16.23;;;8.13;;
16579;SDS011;8402;51.466;6.806;2023-12-07T12:19:55;15.53;;;7.80;;
16579;SDS011;8402;51.466;6.806;2023-12-07T12:22:27;17.07;;;8.17;;
16579;SDS011;8402;51.466;6.806;2023-12-07T12:24:58;19.77;;;7.87;;
16579;SDS011;8402;51.466;6.806;2023-12-07T12:27:28;13.07;;;5.23;;
16579;SDS011;8402;51.466;6.806;2023-12-07T12:30:00;16.17;;;7.17;;
16579;SDS011;8402;51.466;6.806;2023-12-07T12:32:33;15.50;;;7.20;;
16579;SDS011;8402;51.466;6.806;2023-12-07T12:35:14;17.33;;;7.93;;
16579;SDS011;8402;51.466;6.806;2023-12-07T12:37:45;17.63;;;8.27;;
16579;SDS011;8402;51.466;6.806;2023-12-07T12:40:17;15.27;;;7.30;;
16579;SDS011;8402;51.466;6.806;2023-12-07T12:42:50;16.63;;;8.00;;
16579;SDS011;8402;51.466;6.806;2023-12-07T12:45:23;18.40;;;8.00;;
16579;SDS011;8402;51.466;6.806;2023-12-07T12:47:53;15.07;;;7.47;;
16579;SDS011;8402;51.466;6.806;2023-12-07T12:50:35;21.37;;;7.40;;
16579;SDS011;8402;51.466;6.806;2023-12-07T12:53:08;17.33;;;8.13;;
16579;SDS011;8402;51.466;6.806;2023-12-07T12:55:40;14.13;;;7.63;;
16579;SDS011;8402;51.466;6.806;2023-12-07T12:58:14;14.53;;;6.37;;
16579;SDS011;8402;51.466;6.806;2023-12-07T13:00:44;16.30;;;7.63;;
16579;SDS011;8402;51.466;6.806;2023-12-07T13:03:14;15.43;;;7.40;;
16579;SDS011;8402;51.466;6.806;2023-12-07T13:05:47;15.13;;;6.93;;
16579;SDS011;8402;51.466;6.806;2023-12-07T13:08:17;14.97;;;7.47;;
16579;SDS011;8402;51.466;6.806;2023-12-07T13:10:47;19.87;;;8.27;;
16579;SDS011;8402;51.466;6.806;2023-12-07T13:13:18;21.27;;;8.10;;
16579;SDS011;8402;51.466;6.806;2023-12-07T13:15:49;16.17;;;7.53;;
16579;SDS011;8402;51.466;6.806;2023-12-07T13:18:19;16.43;;;7.33;;
16579;SDS011;8402;51.466;6.806;2023-12-07T13:20:52;13.27;;;6.13;;
16579;SDS011;8402;51.466;6.806;2023-12-07T13:23:22;9.53;;;4.97;;
16579;SDS011;8402;51.466;6.806;2023-12-07T13:25:52;13.53;;;6.60;;
16579;SDS011;8402;51.466;6.806;2023-12-07T13:28:22;15.47;;;7.20;;
16579;SDS011;8402;51.466;6.806;2023-12-07T13:30:52;12.87;;;6.23;;
16579;SDS011;8402;51.466;6.806;2023-12-07T13:33:22;14.33;;;6.77;;
16579;SDS011;8402;51.466;6.806;2023-12-07T13:36:00;13.50;;;6.63;;
16579;SDS011;8402;51.466;6.806;2023-12-07T13:38:33;11.20;;;5.17;;
16579;SDS011;8402;51.466;6.806;2023-12-07T13:41:03;16.00;;;7.13;;
16579;SDS011;8402;51.466;6.806;2023-12-07T13:43:33;13.73;;;6.23;;
16579;SDS011;8402;51.466;6.806;2023-12-07T13:46:03;13.03;;;6.63;;
16579;SDS011;8402;51.466;6.806;2023-12-07T13:48:34;12.73;;;5.90;;
16579;SDS011;8402;51.466;6.806;2023-12-07T13:51:07;14.30;;;6.50;;
16579;SDS011;8402;51.466;6.806;2023-12-07T13:53:37;12.83;;;6.77;;
16579;SDS011;8402;51.466;6.806;2023-12-07T13:56:07;12.17;;;6.53;;
16579;SDS011;8402;51.466;6.806;2023-12-07T13:58:37;12.80;;;6.20;;
16579;SDS011;8402;51.466;6.806;2023-12-07T14:01:08;15.50;;;6.93;;
16579;SDS011;8402;51.466;6.806;2023-12-07T14:03:38;14.33;;;6.63;;
16579;SDS011;8402;51.466;6.806;2023-12-07T14:06:10;14.93;;;7.10;;
16579;SDS011;8402;51.466;6.806;2023-12-07T14:08:53;14.07;;;6.47;;
16579;SDS011;8402;51.466;6.806;2023-12-07T14:11:23;15.30;;;6.80;;
16579;SDS011;8402;51.466;6.806;2023-12-07T14:13:53;15.07;;;6.70;;
16579;SDS011;8402;51.466;6.806;2023-12-07T14:16:21;12.37;;;6.43;;
16579;SDS011;8402;51.466;6.806;2023-12-07T14:19:11;14.27;;;6.83;;
16579;SDS011;8402;51.466;6.806;2023-12-07T14:21:45;14.07;;;7.00;;
16579;SDS011;8402;51.466;6.806;2023-12-07T14:24:21;15.93;;;6.20;;
16579;SDS011;8402;51.466;6.806;2023-12-07T14:26:53;13.07;;;6.57;;
16579;SDS011;8402;51.466;6.806;2023-12-07T14:29:23;18.37;;;7.00;;
16579;SDS011;8402;51.466;6.806;2023-12-07T14:31:54;15.33;;;6.57;;
16579;SDS011;8402;51.466;6.806;2023-12-07T14:34:25;15.10;;;6.43;;
16579;SDS011;8402;51.466;6.806;2023-12-07T14:37:04;15.97;;;7.10;;
16579;SDS011;8402;51.466;6.806;2023-12-07T14:39:35;14.50;;;5.77;;
16579;SDS011;8402;51.466;6.806;2023-12-07T14:42:05;14.63;;;6.47;;
16579;SDS011;8402;51.466;6.806;2023-12-07T14:44:36;13.43;;;6.20;;
16579;SDS011;8402;51.466;6.806;2023-12-07T14:47:06;12.67;;;6.03;;
16579;SDS011;8402;51.466;6.806;2023-12-07T14:49:37;12.97;;;6.37;;
16579;SDS011;8402;51.466;6.806;2023-12-07T14:52:10;13.93;;;5.87;;
16579;SDS011;8402;51.466;6.806;2023-12-07T14:54:40;10.97;;;5.70;;
16579;SDS011;8402;51.466;6.806;2023-12-07T14:57:10;14.67;;;6.23;;
16579;SDS011;8402;51.466;6.806;2023-12-07T14:59:40;11.50;;;4.87;;
16579;SDS011;8402;51.466;6.806;2023-12-07T15:02:10;14.77;;;6.33;;
16579;SDS011;8402;51.466;6.806;2023-12-07T15:04:41;9.63;;;5.10;;
16579;SDS011;8402;51.466;6.806;2023-12-07T15:07:14;12.03;;;6.37;;
16579;SDS011;8402;51.466;6.806;2023-12-07T15:09:45;11.93;;;6.27;;